Bob Baker Memorial Airport Kiana US
ICAO: PAIK
IATA:
Category: Medium
Scheduled Services:

Elevation: 166 ft
TransAlt. 18000 ft.

Airport Communications:
ANCHORAGE CNTR:119.2
CTAF:122.7

PAIK Zoom In..

Runways:

(A) RW 06 length 3400 ft width 100 ft
---- / hdg 64

(B) RW 24 length 3400 ft width 100 ft
---- / hdg 244

Location; PAIK
Day. 16 / Time. 18.14 Zulu
* Altimeter: 29.80
* Temperature: 08° c. 46.4°f.
* Wind from: 340° Speed 10 kn with Gusts up to 17 kn.
Dewpoint: 05° c.
Visibility: 10 Statute Miles.
Clouds: Broken 1500 ft.
Clouds: Broken 2000 ft.

PAIK 161814Z AUTO 34010G17KT 270V020 10SM BKN015 BKN020 08/05 A2980 RMK AO2


Wind From 340°
Speed 10 kn.

 
 
jpsmedia.com for Web Design worldairports.se 2018   terms of use